sensor_id;sensor_type;location;lat;lon;timestamp;P1;durP1;ratioP1;P2;durP2;ratioP2
52188;SDS011;38162;45.926;13.608;2022-07-22T00:01:23;65.50;;;49.10;;
52188;SDS011;38162;45.926;13.608;2022-07-22T00:03:48;61.97;;;48.38;;
52188;SDS011;38162;45.926;13.608;2022-07-22T00:06:14;59.70;;;48.88;;
52188;SDS011;38162;45.926;13.608;2022-07-22T00:08:40;67.05;;;48.03;;
52188;SDS011;38162;45.926;13.608;2022-07-22T00:11:06;58.95;;;47.15;;
52188;SDS011;38162;45.926;13.608;2022-07-22T00:13:31;59.33;;;47.22;;
52188;SDS011;38162;45.926;13.608;2022-07-22T00:15:57;56.80;;;47.40;;
52188;SDS011;38162;45.926;13.608;2022-07-22T00:18:23;58.85;;;44.17;;
52188;SDS011;38162;45.926;13.608;2022-07-22T00:20:49;53.25;;;45.20;;
52188;SDS011;38162;45.926;13.608;2022-07-22T00:23:14;56.05;;;44.72;;
52188;SDS011;38162;45.926;13.608;2022-07-22T00:25:40;58.28;;;45.33;;
52188;SDS011;38162;45.926;13.608;2022-07-22T00:28:06;57.25;;;43.28;;
52188;SDS011;38162;45.926;13.608;2022-07-22T00:30:32;54.72;;;43.03;;
52188;SDS011;38162;45.926;13.608;2022-07-22T00:32:58;59.20;;;43.35;;
52188;SDS011;38162;45.926;13.608;2022-07-22T00:35:24;49.60;;;42.58;;
52188;SDS011;38162;45.926;13.608;2022-07-22T00:37:49;57.40;;;42.22;;
52188;SDS011;38162;45.926;13.608;2022-07-22T00:40:15;58.08;;;44.53;;
52188;SDS011;38162;45.926;13.608;2022-07-22T00:42:41;56.67;;;44.17;;
52188;SDS011;38162;45.926;13.608;2022-07-22T00:45:07;55.50;;;43.90;;
52188;SDS011;38162;45.926;13.608;2022-07-22T00:47:33;51.78;;;43.30;;
52188;SDS011;38162;45.926;13.608;2022-07-22T00:49:59;55.83;;;42.58;;
52188;SDS011;38162;45.926;13.608;2022-07-22T00:52:25;58.03;;;43.03;;
52188;SDS011;38162;45.926;13.608;2022-07-22T00:54:51;61.03;;;43.78;;
52188;SDS011;38162;45.926;13.608;2022-07-22T00:57:17;57.95;;;43.38;;
52188;SDS011;38162;45.926;13.608;2022-07-22T00:59:43;65.45;;;43.85;;
52188;SDS011;38162;45.926;13.608;2022-07-22T01:02:09;53.90;;;43.83;;
52188;SDS011;38162;45.926;13.608;2022-07-22T01:04:36;59.45;;;45.72;;
52188;SDS011;38162;45.926;13.608;2022-07-22T01:07:02;59.05;;;44.75;;
52188;SDS011;38162;45.926;13.608;2022-07-22T01:09:28;55.45;;;43.55;;
52188;SDS011;38162;45.926;13.608;2022-07-22T01:11:54;66.53;;;43.90;;
52188;SDS011;38162;45.926;13.608;2022-07-22T01:14:19;57.40;;;47.00;;
52188;SDS011;38162;45.926;13.608;2022-07-22T01:16:45;59.28;;;45.42;;
52188;SDS011;38162;45.926;13.608;2022-07-22T01:19:11;58.10;;;45.88;;
52188;SDS011;38162;45.926;13.608;2022-07-22T01:21:37;59.88;;;45.45;;
52188;SDS011;38162;45.926;13.608;2022-07-22T01:24:03;54.33;;;45.10;;
52188;SDS011;38162;45.926;13.608;2022-07-22T01:26:30;58.90;;;45.35;;
52188;SDS011;38162;45.926;13.608;2022-07-22T01:28:58;62.40;;;45.58;;
52188;SDS011;38162;45.926;13.608;2022-07-22T01:31:24;57.10;;;43.70;;
52188;SDS011;38162;45.926;13.608;2022-07-22T01:33:50;60.10;;;43.55;;
52188;SDS011;38162;45.926;13.608;2022-07-22T01:36:15;51.25;;;41.63;;
52188;SDS011;38162;45.926;13.608;2022-07-22T01:38:41;53.83;;;40.28;;
52188;SDS011;38162;45.926;13.608;2022-07-22T01:41:07;53.42;;;41.70;;
52188;SDS011;38162;45.926;13.608;2022-07-22T01:43:33;49.53;;;41.75;;
52188;SDS011;38162;45.926;13.608;2022-07-22T01:45:59;53.85;;;40.38;;
52188;SDS011;38162;45.926;13.608;2022-07-22T01:48:25;51.38;;;40.22;;
52188;SDS011;38162;45.926;13.608;2022-07-22T01:50:51;52.47;;;39.63;;
52188;SDS011;38162;45.926;13.608;2022-07-22T01:53:17;53.67;;;38.40;;
52188;SDS011;38162;45.926;13.608;2022-07-22T01:55:43;49.85;;;39.10;;
52188;SDS011;38162;45.926;13.608;2022-07-22T01:58:09;47.92;;;39.55;;
52188;SDS011;38162;45.926;13.608;2022-07-22T02:00:35;50.30;;;40.78;;
52188;SDS011;38162;45.926;13.608;2022-07-22T02:03:01;52.00;;;40.33;;
52188;SDS011;38162;45.926;13.608;2022-07-22T02:05:27;52.50;;;39.67;;
52188;SDS011;38162;45.926;13.608;2022-07-22T02:07:58;51.70;;;41.92;;
52188;SDS011;38162;45.926;13.608;2022-07-22T02:10:28;56.13;;;40.35;;
52188;SDS011;38162;45.926;13.608;2022-07-22T02:12:54;55.67;;;41.90;;
52188;SDS011;38162;45.926;13.608;2022-07-22T02:15:21;53.33;;;39.58;;
52188;SDS011;38162;45.926;13.608;2022-07-22T02:17:47;52.53;;;40.70;;
52188;SDS011;38162;45.926;13.608;2022-07-22T02:20:12;49.92;;;40.33;;
52188;SDS011;38162;45.926;13.608;2022-07-22T02:22:38;49.10;;;39.38;;
52188;SDS011;38162;45.926;13.608;2022-07-22T02:25:04;51.85;;;41.58;;
52188;SDS011;38162;45.926;13.608;2022-07-22T02:27:30;52.13;;;40.38;;
52188;SDS011;38162;45.926;13.608;2022-07-22T02:29:55;53.30;;;40.30;;
52188;SDS011;38162;45.926;13.608;2022-07-22T02:32:21;55.15;;;39.65;;
52188;SDS011;38162;45.926;13.608;2022-07-22T02:34:47;48.42;;;39.15;;
52188;SDS011;38162;45.926;13.608;2022-07-22T02:37:12;46.30;;;38.78;;
52188;SDS011;38162;45.926;13.608;2022-07-22T02:39:38;49.17;;;38.40;;
52188;SDS011;38162;45.926;13.608;2022-07-22T02:42:04;47.60;;;36.47;;
52188;SDS011;38162;45.926;13.608;2022-07-22T02:44:30;45.47;;;36.08;;
52188;SDS011;38162;45.926;13.608;2022-07-22T02:46:55;43.10;;;34.97;;
52188;SDS011;38162;45.926;13.608;2022-07-22T02:49:21;44.22;;;33.65;;
52188;SDS011;38162;45.926;13.608;2022-07-22T02:51:47;44.88;;;32.72;;
52188;SDS011;38162;45.926;13.608;2022-07-22T02:54:12;47.78;;;35.65;;
52188;SDS011;38162;45.926;13.608;2022-07-22T02:56:38;43.42;;;32.10;;
52188;SDS011;38162;45.926;13.608;2022-07-22T02:59:04;43.47;;;34.78;;
52188;SDS011;38162;45.926;13.608;2022-07-22T03:01:29;47.90;;;33.65;;
52188;SDS011;38162;45.926;13.608;2022-07-22T03:03:55;44.75;;;33.75;;
52188;SDS011;38162;45.926;13.608;2022-07-22T03:06:21;42.65;;;33.08;;
52188;SDS011;38162;45.926;13.608;2022-07-22T03:08:47;42.28;;;33.30;;
52188;SDS011;38162;45.926;13.608;2022-07-22T03:11:13;44.17;;;32.88;;
52188;SDS011;38162;45.926;13.608;2022-07-22T03:13:39;46.95;;;32.03;;
52188;SDS011;38162;45.926;13.608;2022-07-22T03:16:04;37.95;;;32.67;;
52188;SDS011;38162;45.926;13.608;2022-07-22T03:18:30;38.70;;;32.28;;
52188;SDS011;38162;45.926;13.608;2022-07-22T03:20:55;40.22;;;30.52;;
52188;SDS011;38162;45.926;13.608;2022-07-22T03:23:22;44.40;;;33.88;;
52188;SDS011;38162;45.926;13.608;2022-07-22T03:25:48;44.08;;;31.77;;
52188;SDS011;38162;45.926;13.608;2022-07-22T03:28:13;41.15;;;32.65;;
52188;SDS011;38162;45.926;13.608;2022-07-22T03:30:39;41.22;;;32.35;;
52188;SDS011;38162;45.926;13.608;2022-07-22T03:33:05;42.65;;;31.42;;
52188;SDS011;38162;45.926;13.608;2022-07-22T03:35:30;38.90;;;31.83;;
52188;SDS011;38162;45.926;13.608;2022-07-22T03:37:56;39.42;;;32.33;;
52188;SDS011;38162;45.926;13.608;2022-07-22T03:40:22;44.10;;;32.67;;
52188;SDS011;38162;45.926;13.608;2022-07-22T03:42:48;48.05;;;32.47;;
52188;SDS011;38162;45.926;13.608;2022-07-22T03:45:13;46.42;;;32.40;;
52188;SDS011;38162;45.926;13.608;2022-07-22T03:47:39;45.92;;;34.38;;
52188;SDS011;38162;45.926;13.608;2022-07-22T03:50:05;45.40;;;34.13;;
52188;SDS011;38162;45.926;13.608;2022-07-22T03:52:31;44.13;;;34.40;;
52188;SDS011;38162;45.926;13.608;2022-07-22T03:54:57;43.25;;;33.38;;
52188;SDS011;38162;45.926;13.608;2022-07-22T03:57:23;44.10;;;33.30;;
52188;SDS011;38162;45.926;13.608;2022-07-22T03:59:49;41.33;;;33.08;;
52188;SDS011;38162;45.926;13.608;2022-07-22T04:02:14;44.67;;;32.78;;
52188;SDS011;38162;45.926;13.608;2022-07-22T04:04:40;40.70;;;32.38;;
52188;SDS011;38162;45.926;13.608;2022-07-22T04:07:06;36.30;;;31.95;;
52188;SDS011;38162;45.926;13.608;2022-07-22T04:09:31;42.72;;;32.28;;
52188;SDS011;38162;45.926;13.608;2022-07-22T04:11:57;40.35;;;30.92;;
52188;SDS011;38162;45.926;13.608;2022-07-22T04:14:23;47.05;;;31.27;;
52188;SDS011;38162;45.926;13.608;2022-07-22T04:16:49;38.67;;;31.45;;
52188;SDS011;38162;45.926;13.608;2022-07-22T04:19:15;44.55;;;31.35;;
52188;SDS011;38162;45.926;13.608;2022-07-22T04:21:40;46.75;;;32.42;;
52188;SDS011;38162;45.926;13.608;2022-07-22T04:24:06;40.58;;;30.27;;
52188;SDS011;38162;45.926;13.608;2022-07-22T04:26:33;44.08;;;29.63;;
52188;SDS011;38162;45.926;13.608;2022-07-22T04:28:59;42.35;;;30.65;;
52188;SDS011;38162;45.926;13.608;2022-07-22T04:31:25;44.95;;;32.75;;
52188;SDS011;38162;45.926;13.608;2022-07-22T04:33:50;52.25;;;31.05;;
52188;SDS011;38162;45.926;13.608;2022-07-22T04:36:16;45.65;;;32.00;;
52188;SDS011;38162;45.926;13.608;2022-07-22T04:38:42;45.25;;;31.02;;
52188;SDS011;38162;45.926;13.608;2022-07-22T04:41:08;41.83;;;32.92;;
52188;SDS011;38162;45.926;13.608;2022-07-22T04:43:33;35.97;;;30.23;;
52188;SDS011;38162;45.926;13.608;2022-07-22T04:45:59;46.92;;;31.63;;
52188;SDS011;38162;45.926;13.608;2022-07-22T04:48:25;43.40;;;32.33;;
52188;SDS011;38162;45.926;13.608;2022-07-22T04:50:51;51.28;;;31.65;;
52188;SDS011;38162;45.926;13.608;2022-07-22T04:53:16;55.30;;;31.15;;
52188;SDS011;38162;45.926;13.608;2022-07-22T04:55:42;51.17;;;32.15;;
52188;SDS011;38162;45.926;13.608;2022-07-22T04:58:08;38.08;;;31.80;;
52188;SDS011;38162;45.926;13.608;2022-07-22T05:00:34;40.75;;;31.25;;
52188;SDS011;38162;45.926;13.608;2022-07-22T05:02:59;42.92;;;30.98;;
52188;SDS011;38162;45.926;13.608;2022-07-22T05:05:25;45.50;;;29.83;;
52188;SDS011;38162;45.926;13.608;2022-07-22T05:07:51;52.38;;;29.83;;
52188;SDS011;38162;45.926;13.608;2022-07-22T05:10:17;47.20;;;30.40;;
52188;SDS011;38162;45.926;13.608;2022-07-22T05:12:43;44.15;;;27.40;;
52188;SDS011;38162;45.926;13.608;2022-07-22T05:15:08;40.58;;;29.45;;
52188;SDS011;38162;45.926;13.608;2022-07-22T05:17:34;39.38;;;29.08;;
52188;SDS011;38162;45.926;13.608;2022-07-22T05:20:03;43.72;;;27.77;;
52188;SDS011;38162;45.926;13.608;2022-07-22T05:22:30;37.85;;;28.13;;
52188;SDS011;38162;45.926;13.608;2022-07-22T05:24:56;43.45;;;28.00;;
52188;SDS011;38162;45.926;13.608;2022-07-22T05:27:21;47.50;;;28.42;;
52188;SDS011;38162;45.926;13.608;2022-07-22T05:29:47;40.50;;;28.10;;
52188;SDS011;38162;45.926;13.608;2022-07-22T05:32:13;44.95;;;28.88;;
52188;SDS011;38162;45.926;13.608;2022-07-22T05:34:39;45.05;;;27.00;;
52188;SDS011;38162;45.926;13.608;2022-07-22T05:37:05;54.90;;;27.05;;
52188;SDS011;38162;45.926;13.608;2022-07-22T05:39:30;53.97;;;27.70;;
52188;SDS011;38162;45.926;13.608;2022-07-22T05:41:56;60.63;;;28.02;;
52188;SDS011;38162;45.926;13.608;2022-07-22T05:44:22;51.33;;;28.27;;
52188;SDS011;38162;45.926;13.608;2022-07-22T05:46:47;44.47;;;26.98;;
52188;SDS011;38162;45.926;13.608;2022-07-22T05:49:13;55.03;;;27.90;;
52188;SDS011;38162;45.926;13.608;2022-07-22T05:51:39;51.42;;;27.48;;
52188;SDS011;38162;45.926;13.608;2022-07-22T05:54:04;42.63;;;26.58;;
52188;SDS011;38162;45.926;13.608;2022-07-22T05:56:30;44.83;;;27.17;;
52188;SDS011;38162;45.926;13.608;2022-07-22T05:58:56;35.78;;;24.23;;
52188;SDS011;38162;45.926;13.608;2022-07-22T06:01:22;34.17;;;24.58;;
52188;SDS011;38162;45.926;13.608;2022-07-22T06:03:48;35.08;;;22.90;;
52188;SDS011;38162;45.926;13.608;2022-07-22T06:06:13;40.13;;;22.35;;
52188;SDS011;38162;45.926;13.608;2022-07-22T06:08:39;34.28;;;19.92;;
52188;SDS011;38162;45.926;13.608;2022-07-22T06:11:05;31.60;;;19.10;;
52188;SDS011;38162;45.926;13.608;2022-07-22T06:13:31;23.25;;;14.93;;
52188;SDS011;38162;45.926;13.608;2022-07-22T06:15:57;14.00;;;9.55;;
52188;SDS011;38162;45.926;13.608;2022-07-22T06:18:24;14.48;;;8.32;;
52188;SDS011;38162;45.926;13.608;2022-07-22T06:20:49;13.32;;;9.10;;
52188;SDS011;38162;45.926;13.608;2022-07-22T06:23:15;13.60;;;9.18;;
52188;SDS011;38162;45.926;13.608;2022-07-22T06:25:41;13.80;;;8.20;;
52188;SDS011;38162;45.926;13.608;2022-07-22T06:28:07;15.93;;;7.75;;
52188;SDS011;38162;45.926;13.608;2022-07-22T06:30:33;12.88;;;8.15;;
52188;SDS011;38162;45.926;13.608;2022-07-22T06:32:59;13.35;;;7.97;;
52188;SDS011;38162;45.926;13.608;2022-07-22T06:35:25;16.70;;;8.50;;
52188;SDS011;38162;45.926;13.608;2022-07-22T06:37:53;13.80;;;7.38;;
52188;SDS011;38162;45.926;13.608;2022-07-22T06:40:19;12.40;;;7.28;;
52188;SDS011;38162;45.926;13.608;2022-07-22T06:42:45;14.40;;;8.40;;
52188;SDS011;38162;45.926;13.608;2022-07-22T06:45:11;13.63;;;8.63;;
52188;SDS011;38162;45.926;13.608;2022-07-22T06:47:36;16.40;;;8.95;;
52188;SDS011;38162;45.926;13.608;2022-07-22T06:50:03;15.35;;;8.93;;
52188;SDS011;38162;45.926;13.608;2022-07-22T06:52:30;21.65;;;9.65;;
52188;SDS011;38162;45.926;13.608;2022-07-22T06:54:56;12.23;;;9.25;;
52188;SDS011;38162;45.926;13.608;2022-07-22T06:57:22;16.35;;;8.35;;
52188;SDS011;38162;45.926;13.608;2022-07-22T06:59:48;14.43;;;8.45;;
52188;SDS011;38162;45.926;13.608;2022-07-22T07:02:13;13.73;;;7.57;;
52188;SDS011;38162;45.926;13.608;2022-07-22T07:04:39;9.70;;;7.25;;
52188;SDS011;38162;45.926;13.608;2022-07-22T07:07:05;10.70;;;6.93;;
52188;SDS011;38162;45.926;13.608;2022-07-22T07:09:30;14.18;;;6.75;;
52188;SDS011;38162;45.926;13.608;2022-07-22T07:11:56;16.50;;;7.07;;
52188;SDS011;38162;45.926;13.608;2022-07-22T07:14:22;11.30;;;7.05;;
52188;SDS011;38162;45.926;13.608;2022-07-22T07:16:47;13.07;;;6.90;;
52188;SDS011;38162;45.926;13.608;2022-07-22T07:19:13;16.73;;;6.95;;
52188;SDS011;38162;45.926;13.608;2022-07-22T07:21:38;11.63;;;6.13;;
52188;SDS011;38162;45.926;13.608;2022-07-22T07:24:04;10.70;;;7.07;;
52188;SDS011;38162;45.926;13.608;2022-07-22T07:26:30;11.90;;;7.03;;
52188;SDS011;38162;45.926;13.608;2022-07-22T07:28:56;13.00;;;6.22;;
52188;SDS011;38162;45.926;13.608;2022-07-22T07:31:22;12.70;;;6.10;;
52188;SDS011;38162;45.926;13.608;2022-07-22T07:33:47;14.82;;;6.05;;
52188;SDS011;38162;45.926;13.608;2022-07-22T07:36:13;11.35;;;6.00;;
52188;SDS011;38162;45.926;13.608;2022-07-22T07:38:39;13.07;;;5.35;;
52188;SDS011;38162;45.926;13.608;2022-07-22T07:41:05;14.23;;;5.63;;
52188;SDS011;38162;45.926;13.608;2022-07-22T07:43:31;9.43;;;5.10;;
52188;SDS011;38162;45.926;13.608;2022-07-22T07:45:57;9.10;;;4.88;;
52188;SDS011;38162;45.926;13.608;2022-07-22T07:48:23;11.48;;;5.03;;
52188;SDS011;38162;45.926;13.608;2022-07-22T07:50:49;6.55;;;4.93;;
52188;SDS011;38162;45.926;13.608;2022-07-22T07:53:15;7.00;;;5.10;;
52188;SDS011;38162;45.926;13.608;2022-07-22T07:55:42;9.68;;;5.25;;
52188;SDS011;38162;45.926;13.608;2022-07-22T07:58:07;16.13;;;4.85;;
52188;SDS011;38162;45.926;13.608;2022-07-22T08:00:33;8.13;;;5.07;;
52188;SDS011;38162;45.926;13.608;2022-07-22T08:03:00;10.88;;;5.00;;
52188;SDS011;38162;45.926;13.608;2022-07-22T08:05:27;14.85;;;5.60;;
52188;SDS011;38162;45.926;13.608;2022-07-22T08:07:53;8.75;;;4.45;;
52188;SDS011;38162;45.926;13.608;2022-07-22T08:10:19;9.32;;;5.00;;
52188;SDS011;38162;45.926;13.608;2022-07-22T08:12:45;8.07;;;4.85;;
52188;SDS011;38162;45.926;13.608;2022-07-22T08:15:12;10.63;;;4.70;;
52188;SDS011;38162;45.926;13.608;2022-07-22T08:17:38;7.68;;;4.40;;
52188;SDS011;38162;45.926;13.608;2022-07-22T08:20:04;6.80;;;3.35;;
52188;SDS011;38162;45.926;13.608;2022-07-22T08:22:31;9.13;;;2.92;;
52188;SDS011;38162;45.926;13.608;2022-07-22T08:24:57;7.40;;;2.47;;
52188;SDS011;38162;45.926;13.608;2022-07-22T08:27:23;5.45;;;2.03;;
52188;SDS011;38162;45.926;13.608;2022-07-22T08:29:48;5.57;;;2.85;;
52188;SDS011;38162;45.926;13.608;2022-07-22T08:32:14;11.70;;;2.60;;
52188;SDS011;38162;45.926;13.608;2022-07-22T08:34:40;16.77;;;2.88;;
52188;SDS011;38162;45.926;13.608;2022-07-22T08:37:05;8.90;;;2.50;;
52188;SDS011;38162;45.926;13.608;2022-07-22T08:39:31;4.53;;;2.53;;
52188;SDS011;38162;45.926;13.608;2022-07-22T08:41:59;10.48;;;2.30;;
52188;SDS011;38162;45.926;13.608;2022-07-22T08:44:24;6.13;;;2.40;;
52188;SDS011;38162;45.926;13.608;2022-07-22T08:46:54;9.07;;;2.72;;
52188;SDS011;38162;45.926;13.608;2022-07-22T08:49:20;21.33;;;3.33;;
52188;SDS011;38162;45.926;13.608;2022-07-22T08:51:46;10.23;;;2.50;;
52188;SDS011;38162;45.926;13.608;2022-07-22T08:54:12;6.40;;;2.55;;
52188;SDS011;38162;45.926;13.608;2022-07-22T08:56:37;14.18;;;3.13;;
52188;SDS011;38162;45.926;13.608;2022-07-22T08:59:04;11.85;;;3.20;;
52188;SDS011;38162;45.926;13.608;2022-07-22T09:01:30;6.70;;;2.95;;
52188;SDS011;38162;45.926;13.608;2022-07-22T09:03:56;5.40;;;3.15;;
52188;SDS011;38162;45.926;13.608;2022-07-22T09:06:23;5.32;;;3.38;;
52188;SDS011;38162;45.926;13.608;2022-07-22T09:08:59;6.80;;;4.07;;
52188;SDS011;38162;45.926;13.608;2022-07-22T09:11:29;5.50;;;4.40;;
52188;SDS011;38162;45.926;13.608;2022-07-22T09:13:55;15.90;;;5.32;;
52188;SDS011;38162;45.926;13.608;2022-07-22T09:19:30;13.30;;;4.80;;
52188;SDS011;38162;45.926;13.608;2022-07-22T09:21:57;8.38;;;5.10;;
52188;SDS011;38162;45.926;13.608;2022-07-22T09:24:29;13.43;;;3.45;;
52188;SDS011;38162;45.926;13.608;2022-07-22T09:26:57;9.07;;;3.50;;
52188;SDS011;38162;45.926;13.608;2022-07-22T09:29:23;5.38;;;2.97;;
52188;SDS011;38162;45.926;13.608;2022-07-22T09:31:50;6.40;;;4.10;;
52188;SDS011;38162;45.926;13.608;2022-07-22T09:34:27;9.50;;;3.35;;
52188;SDS011;38162;45.926;13.608;2022-07-22T09:36:57;9.60;;;3.20;;
52188;SDS011;38162;45.926;13.608;2022-07-22T09:39:26;4.78;;;3.38;;
52188;SDS011;38162;45.926;13.608;2022-07-22T09:42:00;10.43;;;4.05;;
52188;SDS011;38162;45.926;13.608;2022-07-22T09:44:28;9.85;;;4.80;;
52188;SDS011;38162;45.926;13.608;2022-07-22T09:46:54;9.57;;;4.43;;
52188;SDS011;38162;45.926;13.608;2022-07-22T09:49:30;4.88;;;3.97;;
52188;SDS011;38162;45.926;13.608;2022-07-22T09:52:00;10.55;;;4.57;;
52188;SDS011;38162;45.926;13.608;2022-07-22T09:54:26;7.72;;;4.43;;
52188;SDS011;38162;45.926;13.608;2022-07-22T09:56:53;9.20;;;4.50;;
52188;SDS011;38162;45.926;13.608;2022-07-22T09:59:19;8.70;;;5.75;;
52188;SDS011;38162;45.926;13.608;2022-07-22T10:01:45;6.18;;;4.97;;
52188;SDS011;38162;45.926;13.608;2022-07-22T10:04:15;7.30;;;4.97;;
52188;SDS011;38162;45.926;13.608;2022-07-22T10:06:42;11.32;;;4.65;;
52188;SDS011;38162;45.926;13.608;2022-07-22T10:09:08;10.27;;;7.85;;
52188;SDS011;38162;45.926;13.608;2022-07-22T10:11:36;9.48;;;6.70;;
52188;SDS011;38162;45.926;13.608;2022-07-22T10:14:02;9.85;;;8.55;;
52188;SDS011;38162;45.926;13.608;2022-07-22T10:16:28;13.52;;;9.65;;
52188;SDS011;38162;45.926;13.608;2022-07-22T10:18:55;17.50;;;10.60;;
52188;SDS011;38162;45.926;13.608;2022-07-22T10:21:29;16.13;;;10.32;;
52188;SDS011;38162;45.926;13.608;2022-07-22T10:26:47;9.68;;;7.03;;
52188;SDS011;38162;45.926;13.608;2022-07-22T10:34:43;14.32;;;7.45;;
52188;SDS011;38162;45.926;13.608;2022-07-22T10:45:25;11.50;;;8.02;;
52188;SDS011;38162;45.926;13.608;2022-07-22T10:47:53;15.65;;;8.25;;
52188;SDS011;38162;45.926;13.608;2022-07-22T10:55:26;14.05;;;7.75;;
52188;SDS011;38162;45.926;13.608;2022-07-22T10:57:52;9.40;;;7.47;;
52188;SDS011;38162;45.926;13.608;2022-07-22T11:00:18;11.85;;;7.72;;
52188;SDS011;38162;45.926;13.608;2022-07-22T11:02:44;12.20;;;7.82;;
52188;SDS011;38162;45.926;13.608;2022-07-22T11:05:10;16.13;;;7.72;;
52188;SDS011;38162;45.926;13.608;2022-07-22T11:07:45;9.40;;;7.60;;
52188;SDS011;38162;45.926;13.608;2022-07-22T11:10:13;13.50;;;7.53;;
52188;SDS011;38162;45.926;13.608;2022-07-22T11:12:44;12.93;;;7.30;;
52188;SDS011;38162;45.926;13.608;2022-07-22T11:15:11;13.98;;;7.38;;
52188;SDS011;38162;45.926;13.608;2022-07-22T11:17:37;10.35;;;7.45;;
52188;SDS011;38162;45.926;13.608;2022-07-22T11:20:04;14.70;;;6.90;;
52188;SDS011;38162;45.926;13.608;2022-07-22T11:22:32;10.93;;;7.13;;
52188;SDS011;38162;45.926;13.608;2022-07-22T11:24:59;11.90;;;7.43;;
52188;SDS011;38162;45.926;13.608;2022-07-22T11:27:28;13.85;;;8.30;;
52188;SDS011;38162;45.926;13.608;2022-07-22T11:29:54;13.82;;;8.60;;
52188;SDS011;38162;45.926;13.608;2022-07-22T11:32:21;10.98;;;8.27;;
52188;SDS011;38162;45.926;13.608;2022-07-22T11:34:48;12.02;;;7.30;;
52188;SDS011;38162;45.926;13.608;2022-07-22T11:37:14;12.38;;;7.50;;
52188;SDS011;38162;45.926;13.608;2022-07-22T11:39:44;14.55;;;9.85;;
52188;SDS011;38162;45.926;13.608;2022-07-22T11:42:11;13.63;;;9.05;;
52188;SDS011;38162;45.926;13.608;2022-07-22T11:44:37;18.95;;;10.90;;
52188;SDS011;38162;45.926;13.608;2022-07-22T11:47:04;20.98;;;11.50;;
52188;SDS011;38162;45.926;13.608;2022-07-22T11:49:32;13.55;;;9.43;;
52188;SDS011;38162;45.926;13.608;2022-07-22T11:51:59;11.90;;;8.65;;
52188;SDS011;38162;45.926;13.608;2022-07-22T11:54:26;9.60;;;7.93;;
52188;SDS011;38162;45.926;13.608;2022-07-22T11:56:52;14.40;;;8.82;;
52188;SDS011;38162;45.926;13.608;2022-07-22T11:59:18;11.65;;;8.85;;
52188;SDS011;38162;45.926;13.608;2022-07-22T12:01:45;10.55;;;7.43;;
52188;SDS011;38162;45.926;13.608;2022-07-22T12:04:13;10.93;;;6.63;;
52188;SDS011;38162;45.926;13.608;2022-07-22T12:09:10;9.60;;;7.25;;
52188;SDS011;38162;45.926;13.608;2022-07-22T12:11:37;11.02;;;6.60;;
52188;SDS011;38162;45.926;13.608;2022-07-22T12:14:15;13.05;;;6.38;;
52188;SDS011;38162;45.926;13.608;2022-07-22T12:16:56;9.18;;;6.13;;
52188;SDS011;38162;45.926;13.608;2022-07-22T12:19:27;11.75;;;6.43;;
52188;SDS011;38162;45.926;13.608;2022-07-22T12:21:58;11.07;;;9.10;;
52188;SDS011;38162;45.926;13.608;2022-07-22T12:26:59;8.35;;;7.10;;
52188;SDS011;38162;45.926;13.608;2022-07-22T12:29:29;8.57;;;6.70;;
52188;SDS011;38162;45.926;13.608;2022-07-22T12:32:07;9.70;;;7.00;;
52188;SDS011;38162;45.926;13.608;2022-07-22T12:34:39;11.27;;;8.57;;
52188;SDS011;38162;45.926;13.608;2022-07-22T12:37:28;9.88;;;7.57;;
52188;SDS011;38162;45.926;13.608;2022-07-22T12:42:36;12.05;;;8.07;;
52188;SDS011;38162;45.926;13.608;2022-07-22T12:47:39;18.33;;;9.05;;
52188;SDS011;38162;45.926;13.608;2022-07-22T12:50:23;12.70;;;7.97;;
52188;SDS011;38162;45.926;13.608;2022-07-22T12:55:19;12.88;;;7.75;;
52188;SDS011;38162;45.926;13.608;2022-07-22T12:57:44;15.13;;;8.45;;
52188;SDS011;38162;45.926;13.608;2022-07-22T13:00:10;10.77;;;9.43;;
52188;SDS011;38162;45.926;13.608;2022-07-22T13:02:45;15.27;;;9.60;;
52188;SDS011;38162;45.926;13.608;2022-07-22T13:05:11;17.33;;;9.45;;
52188;SDS011;38162;45.926;13.608;2022-07-22T13:07:36;11.80;;;8.63;;
52188;SDS011;38162;45.926;13.608;2022-07-22T13:10:03;12.90;;;8.70;;
52188;SDS011;38162;45.926;13.608;2022-07-22T13:12:29;16.55;;;10.18;;
52188;SDS011;38162;45.926;13.608;2022-07-22T13:14:54;11.73;;;9.13;;
52188;SDS011;38162;45.926;13.608;2022-07-22T13:17:20;13.93;;;9.52;;
52188;SDS011;38162;45.926;13.608;2022-07-22T13:19:46;17.38;;;9.65;;
52188;SDS011;38162;45.926;13.608;2022-07-22T13:22:11;14.50;;;9.52;;
52188;SDS011;38162;45.926;13.608;2022-07-22T13:24:37;14.50;;;11.32;;
52188;SDS011;38162;45.926;13.608;2022-07-22T13:27:03;17.30;;;11.10;;
52188;SDS011;38162;45.926;13.608;2022-07-22T13:29:29;13.77;;;9.90;;
52188;SDS011;38162;45.926;13.608;2022-07-22T13:31:54;15.25;;;9.98;;
52188;SDS011;38162;45.926;13.608;2022-07-22T13:34:20;13.63;;;10.40;;
52188;SDS011;38162;45.926;13.608;2022-07-22T13:36:46;12.13;;;10.50;;
52188;SDS011;38162;45.926;13.608;2022-07-22T13:39:11;14.73;;;10.52;;
52188;SDS011;38162;45.926;13.608;2022-07-22T13:41:37;17.40;;;11.70;;
52188;SDS011;38162;45.926;13.608;2022-07-22T13:44:03;16.27;;;11.55;;
52188;SDS011;38162;45.926;13.608;2022-07-22T13:46:33;17.58;;;12.90;;
52188;SDS011;38162;45.926;13.608;2022-07-22T13:48:59;16.95;;;12.32;;
52188;SDS011;38162;45.926;13.608;2022-07-22T13:51:25;16.17;;;13.75;;
52188;SDS011;38162;45.926;13.608;2022-07-22T13:53:51;17.95;;;14.77;;
52188;SDS011;38162;45.926;13.608;2022-07-22T13:56:17;18.33;;;14.82;;
52188;SDS011;38162;45.926;13.608;2022-07-22T13:58:42;16.40;;;14.73;;
52188;SDS011;38162;45.926;13.608;2022-07-22T14:01:08;16.30;;;14.55;;
52188;SDS011;38162;45.926;13.608;2022-07-22T14:03:37;20.75;;;15.32;;
52188;SDS011;38162;45.926;13.608;2022-07-22T14:06:04;17.48;;;15.75;;
52188;SDS011;38162;45.926;13.608;2022-07-22T14:08:30;16.88;;;14.32;;
52188;SDS011;38162;45.926;13.608;2022-07-22T14:10:56;17.85;;;15.73;;
52188;SDS011;38162;45.926;13.608;2022-07-22T14:13:22;18.58;;;16.55;;
52188;SDS011;38162;45.926;13.608;2022-07-22T14:15:48;20.23;;;16.42;;
52188;SDS011;38162;45.926;13.608;2022-07-22T14:18:14;23.35;;;16.42;;
52188;SDS011;38162;45.926;13.608;2022-07-22T14:20:40;19.25;;;16.75;;
52188;SDS011;38162;45.926;13.608;2022-07-22T14:23:06;19.45;;;16.73;;
52188;SDS011;38162;45.926;13.608;2022-07-22T14:25:36;19.42;;;17.27;;
52188;SDS011;38162;45.926;13.608;2022-07-22T14:28:03;23.13;;;17.60;;
52188;SDS011;38162;45.926;13.608;2022-07-22T14:30:30;20.30;;;18.20;;
52188;SDS011;38162;45.926;13.608;2022-07-22T14:32:57;23.35;;;17.75;;
52188;SDS011;38162;45.926;13.608;2022-07-22T14:35:23;18.95;;;17.15;;
52188;SDS011;38162;45.926;13.608;2022-07-22T14:37:49;20.77;;;17.15;;
52188;SDS011;38162;45.926;13.608;2022-07-22T14:40:15;21.70;;;16.77;;
52188;SDS011;38162;45.926;13.608;2022-07-22T14:42:41;19.35;;;15.20;;
52188;SDS011;38162;45.926;13.608;2022-07-22T14:45:06;17.67;;;13.98;;
52188;SDS011;38162;45.926;13.608;2022-07-22T14:47:34;26.23;;;16.80;;
52188;SDS011;38162;45.926;13.608;2022-07-22T14:50:02;25.00;;;18.00;;